• Join FlightAware (Why Join?)
  • Login
  • US Flag 
09:14AM EDT


 

Airport Tracker/Info


-or-


 

Live Flight TrackerFlight Track Log ✈ UAL405 ✈ 15-May-2013 ✈ KDEN - KSEA

Flight Track Log - Related Links

Times and Time Zones

All times are in EDT time to prevent confusion due to time zone crossing. See the UAL405 flight status page for this flight to view local times or setup timezone preferences in your user account.

Time Position Orientation Groundspeed Altitude Reporting Facility
EDT Latitude Longitude Course Direction KTS MPH feet Rate Location/Type
08:38PM 39.8333 -104.7500 281° West 188 216 6,600  Level Denver TRACON
08:39PM 39.8333 -104.8333 270° West 249 287 7,800 1,800 Climbing Denver TRACON
08:40PM 39.8333 -104.9333 270° West 274 315 10,200 2,520 Climbing Denver TRACON
08:41PM 39.8890 -105.0895 276° West  Level FlightAware Approximate
08:41PM 39.8392 -105.0400 274° West 310 357 13,100  Level Denver Center
08:42PM 39.8998 -105.2311 276° West  Level FlightAware Approximate
08:42PM 39.8664 -105.1606 286° West 321 369 16,500  Level Denver Center
08:43PM 39.9104 -105.3721 281° West  Level FlightAware Approximate
08:43PM 39.8906 -105.2806 285° West 344 396 19,100  Level Denver Center
08:44PM 39.9219 -105.4197 286° West 373 429 21,800 2,220 Climbing Denver Center
08:45PM 39.9508 -105.5553 286° West 390 449 23,800 1,560 Climbing Denver Center
08:46PM 39.9783 -105.6997 284° West 412 474 25,100 1,260 Climbing Denver Center
08:48PM 39.9708 -105.8447 266° West 395 455 26,700 1,140 Climbing Denver Center
08:49PM 39.9792 -105.9933 274° West 408 470 27,800 960 Climbing Denver Center
08:50PM 39.9900 -106.1811 274° West 432 497 28,800 1,140 Climbing Denver Center
08:51PM 39.9983 -106.3369 274° West 433 498 30,200 1,440 Climbing Denver Center
08:52PM 40.0517 -106.5106 292° West 432 497 31,800 1,440 Climbing Denver Center
08:53PM 40.1197 -106.6453 303° West 423 487 33,200 960 Climbing Denver Center
08:54PM 40.1867 -106.7633 307° West 423 487 33,800 720 Climbing Denver Center
08:55PM 40.2656 -106.9036 306° West 428 493 34,800 660 Climbing Denver Center
08:56PM 40.3325 -107.0247 306° West 429 494 35,200 420 Climbing Denver Center
08:57PM 40.4139 -107.1697 306° West 439 505 35,700 240 Climbing Denver Center
08:58PM 40.4728 -107.2750 306° West 446 513 35,800 120 Climbing Denver Center
08:59PM 40.5569 -107.4278 306° West 459 528 36,000 60 Climbing Denver Center
09:00PM 40.6394 -107.5792 306° West 459 528 36,000  Level Denver Center
09:01PM 40.7119 -107.7100 306° West 461 531 36,000  Level Denver Center
09:02PM 40.7919 -107.8547 306° West 463 533 36,000  Level Denver Center
09:03PM 40.8747 -108.0081 306° West 461 531 36,000  Level Denver Center
09:04PM 40.9450 -108.1394 305° West 458 527 36,000  Level Denver Center
09:05PM 41.0292 -108.2925 306° West 460 529 36,000  Level Denver Center
09:06PM 41.0997 -108.4233 306° West 458 527 36,000  Level Denver Center
09:07PM 41.1700 -108.5583 305° West 460 529 36,000  Level Salt Lake Center
09:08PM 41.2408 -108.6919 305° West 462 532 36,000  Level Salt Lake Center
09:09PM 41.3111 -108.8236 305° West 458 527 36,000  Level Salt Lake Center
09:10PM 41.3933 -108.9778 305° West 459 528 36,000  Level Salt Lake Center
09:11PM 41.4719 -109.1300 305° West 467 537 36,000  Level Salt Lake Center
09:12PM 41.5419 -109.2650 305° West 471 542 36,000  Level Salt Lake Center
09:13PM 41.6219 -109.4203 305° West 457 526 36,100 180 Climbing Salt Lake Center
09:14PM 41.6897 -109.5514 305° West 451 519 36,400 360 Climbing Salt Lake Center
09:15PM 41.7550 -109.6769 305° West 434 499 36,900 660 Climbing Salt Lake Center
09:16PM 41.8303 -109.8258 304° West 431 496 37,800 540 Climbing Salt Lake Center
09:17PM 41.8953 -109.9519 305° West 431 496 38,000 60 Climbing Salt Lake Center
09:18PM 41.9689 -110.0983 304° West 426 490 38,000  Level Salt Lake Center
09:19PM 42.0319 -110.2239 304° West 423 487 38,000  Level Salt Lake Center
09:20PM 42.0944 -110.3467 304° West 416 479 38,000  Level Salt Lake Center
09:21PM 42.1664 -110.4900 304° West 414 476 38,000  Level Salt Lake Center
09:22PM 42.2289 -110.6167 304° West 422 486 38,000  Level Salt Lake Center
09:23PM 42.3033 -110.7644 304° West 426 490 38,000  Level Salt Lake Center
09:24PM 42.3667 -110.8925 304° West 428 493 38,000  Level Salt Lake Center
09:25PM 42.4306 -111.0247 303° West 428 493 38,000  Level Salt Lake Center
09:26PM 42.4964 -111.1586 304° West 429 494 38,000  Level Salt Lake Center
09:27PM 42.5617 -111.2903 304° West 424 488 38,000  Level Salt Lake Center
09:29PM 42.6256 -111.4225 303° West 422 486 38,000  Level Salt Lake Center
09:30PM 42.7028 -111.5817 303° West 422 486 38,000  Level Salt Lake Center
09:31PM 42.7689 -111.7147 304° West 423 487 38,000  Level Salt Lake Center
09:32PM 42.8308 -111.8461 303° West 427 491 38,000  Level Salt Lake Center
09:33PM 42.8947 -111.9789 303° West 434 499 38,000  Level Salt Lake Center
09:34PM 42.9664 -112.1322 303° West 431 496 38,000  Level Salt Lake Center
09:35PM 43.0283 -112.2631 303° West 429 494 38,000  Level Salt Lake Center
09:36PM 43.1008 -112.4161 303° West 429 494 38,000  Level Salt Lake Center
09:37PM 43.1628 -112.5481 303° West 430 495 38,100  Climbing Salt Lake Center
09:38PM 43.2225 -112.6786 302° West 425 489 38,100 -60 Level Salt Lake Center
09:39PM 43.2922 -112.8261 303° West 412 474 38,000 -60 Descending Salt Lake Center
09:40PM 43.3506 -112.9528 302° West 409 471 38,000 -60 Level Salt Lake Center
09:41PM 43.4092 -113.0808 302° West 413 475 37,900  Descending Salt Lake Center
09:42PM 43.4778 -113.2314 302° West 415 478 38,100 60 Climbing Salt Lake Center
09:43PM 43.5361 -113.3614 302° West 415 478 38,100 -60 Level Salt Lake Center
09:44PM 43.6047 -113.5117 302° West 414 476 38,000 -60 Descending Salt Lake Center
09:45PM 43.6678 -113.6450 303° West 428 493 38,000  Level Salt Lake Center
09:46PM 43.7239 -113.7717 302° West 411 473 38,000  Level Salt Lake Center
09:47PM 43.7881 -113.9208 301° West 407 468 38,000  Level Salt Lake Center
09:48PM 43.8450 -114.0508 301° West 410 472 38,000  Level Salt Lake Center
09:49PM 43.9133 -114.2047 302° West 421 484 38,100  Climbing Salt Lake Center
09:50PM 43.9714 -114.3350 302° West 416 479 38,000 -60 Descending Salt Lake Center
09:51PM 44.0292 -114.4650 302° West 414 476 38,000  Level Salt Lake Center
09:52PM 44.0956 -114.6186 301° West 415 478 38,000  Level Salt Lake Center
09:53PM 44.1539 -114.7483 302° West 414 476 38,000  Level Salt Lake Center
09:54PM 44.2094 -114.8789 301° West 412 474 38,000  Level Salt Lake Center
09:55PM 44.2753 -115.0319 301° West 412 474 38,000  Level Salt Lake Center
09:56PM 44.3314 -115.1650 301° West 414 476 38,000  Level Salt Lake Center
09:57PM 44.3978 -115.3200 301° West 416 479 38,000  Level Salt Lake Center
09:58PM 44.4539 -115.4528 301° West 416 479 38,000  Level Salt Lake Center
09:59PM 44.5186 -115.6064 301° West 412 474 38,000  Level Salt Lake Center
10:00PM 44.5739 -115.7375 301° West 411 473 38,000  Level Salt Lake Center
10:01PM 44.6294 -115.8706 300° West 415 478 38,000  Level Salt Lake Center
10:02PM 44.6931 -116.0258 300° West 415 478 38,000  Level Salt Lake Center
10:03PM 44.7481 -116.1583 300° West 414 476 38,000  Level Salt Lake Center
10:04PM 44.8078 -116.3158 298° West 412 474 38,000  Level Salt Lake Center
10:05PM 44.8544 -116.4531 296° West 409 471 38,000  Level Salt Lake Center
10:06PM 44.9108 -116.6100 297° West 405 466 38,000  Level Salt Lake Center
10:07PM 44.9275 -116.6564 297° West 405 466 38,000  Level Seattle Center
10:08PM 44.9758 -116.7936 297° West 409 471 38,000  Level Seattle Center
10:08PM 45.0072 -116.8847 296° West 408 470 38,000  Level Salt Lake Center
10:09PM 45.0633 -117.0475 296° West 412 474 38,000  Level Salt Lake Center
10:10PM 45.1128 -117.1875 297° West 415 478 38,000  Level Salt Lake Center
10:11PM 45.1692 -117.3522 296° West 417 480 38,000  Level Salt Lake Center
10:12PM 45.1861 -117.4008 296° West 414 476 38,000  Level Seattle Center
10:13PM 45.2356 -117.5475 296° West 414 476 38,000  Level Seattle Center
10:14PM 45.2992 -117.6850 303° West 421 484 38,000  Level Seattle Center
10:15PM 45.3644 -117.8183 305° West 415 478 38,000  Level Seattle Center
10:16PM 45.4289 -117.9517 305° West 412 474 38,000  Level Seattle Center
10:17PM 45.4936 -118.0856 305° West 412 474 38,000  Level Seattle Center
10:18PM 45.5583 -118.2208 304° West 414 476 38,000  Level Seattle Center
10:19PM 45.6239 -118.3572 305° West 417 480 38,000  Level Seattle Center
10:20PM 45.6892 -118.4942 304° West 420 483 38,000  Level Seattle Center
10:21PM 45.7528 -118.6300 304° West 414 476 38,000  Level Seattle Center
10:22PM 45.8172 -118.7656 304° West 414 476 38,000  Level Seattle Center
10:23PM 45.8806 -118.9022 304° West 413 475 38,000  Level Seattle Center
10:24PM 45.9589 -119.0675 304° West 418 481 38,000  Level Seattle Center
10:25PM 46.0231 -119.2053 304° West 418 481 38,000  Level Seattle Center
10:26PM 46.0875 -119.3461 303° West 421 484 38,000  Level Seattle Center
10:27PM 46.1514 -119.4842 304° West 420 483 38,000  Level Seattle Center
10:28PM 46.2167 -119.6261 304° West 424 488 38,000  Level Seattle Center
10:29PM 46.2811 -119.7672 303° West 424 488 38,000  Level Seattle Center
10:30PM 46.3453 -119.9094 303° West 424 488 38,000  Level Seattle Center
10:31PM 46.4092 -120.0511 303° West 424 488 38,000  Level Seattle Center
10:32PM 46.4739 -120.1947 303° West 427 491 38,000  Level Seattle Center
10:33PM 46.5378 -120.3389 303° West 428 493 38,000 -1,020 Level Seattle Center
10:34PM 46.6025 -120.4797 304° West 422 486 36,000 -2,460 Descending Seattle Center
10:35PM 46.6667 -120.6267 303° West 429 494 33,000 -2,880 Descending Seattle Center
10:36PM 46.7422 -120.8006 302° West 427 491 30,200 -2,580 Descending Seattle Center
10:37PM 46.8042 -120.9411 303° West 415 478 27,800 -2,340 Descending Seattle Center
10:38PM 46.8667 -121.0794 303° West 410 472 25,500 -2,220 Descending Seattle Center
10:39PM 46.9297 -121.2111 305° West 400 460 23,300 -2,100 Descending Seattle Center
10:40PM 46.9906 -121.3372 305° West 383 441 21,300 -2,040 Descending Seattle Center
10:41PM 47.0233 -121.4089 304° West 378 435 20,200 -1,740 Descending Seattle Center
10:41PM 47.0492 -121.4661 304° West 374 430 19,600 -1,620 Descending Seattle Center
10:42PM 47.0842 -121.5378 306° West 357 411 18,600 -1,800 Descending Seattle Center
10:42PM 47.1078 -121.5900 304° West 357 411 17,800 -1,800 Descending Seattle Center
10:43PM 47.1364 -121.6522 304° West 338 389 16,800 -1,980 Descending Seattle Center
10:43PM 47.1603 -121.7064 303° West 346 398 15,800 -1,800 Descending Seattle Center
10:44PM 47.1886 -121.7667 305° West 339 390 15,000 -1,500 Descending Seattle Center
10:44PM 47.2122 -121.8183 304° West 334 384 14,300 -1,620 Descending Seattle Center
10:45PM 47.2392 -121.8756 305° West 323 372 13,400 -1,920 Descending Seattle Center
10:45PM 47.2661 -121.9339 304° West 322 371 12,400 -1,500 Descending Seattle Center
10:46PM 47.2869 -121.9831 302° West 312 359 11,900 -420 Descending Seattle Center
10:46PM 47.3117 -122.0356 305° West 301 346 12,000 -240 Climbing Seattle Center
10:47PM 47.3317 -122.0794 304° West 252 290 11,700 -840 Descending Seattle Center
10:47PM 47.3492 -122.1186 303° West 247 284 11,200 -1,140 Descending Seattle Center
10:48PM 47.3708 -122.1625 306° West 237 273 10,600 -1,200 Descending Seattle Center
10:48PM 47.4008 -122.1728 347° North 250 288 10,000 -1,200 Descending Seattle Center
10:49PM 47.4375 -122.1714 North 248 285 9,400 -1,140 Descending Seattle Center
10:49PM 47.4681 -122.1719 359° North 244 281 8,900 -1,140 Descending Seattle Center
10:50PM 47.4975 -122.1708 North 243 280 8,400 -1,320 Descending Seattle Center
10:50PM 47.5392 -122.1706 360° North 240 276 7,600 -1,320 Descending Seattle Center
10:51PM 47.5661 -122.1692 North 240 276 7,100 -1,020 Descending Seattle Center
10:51PM 47.6058 -122.1689 360° North 241 277 6,600 -900 Descending Seattle Center
10:52PM 47.6306 -122.1694 359° North 237 273 6,200 -1,320 Descending Seattle Center
10:52PM 47.6700 -122.1692 360° North 235 270 5,300 -1,560 Descending Seattle Center
10:53PM 47.6883 -122.2128 302° West 234 269 4,500 -1,200 Descending Seattle Center
10:53PM 47.6889 -122.2547 271° West 229 264 4,100 -540 Descending Seattle Center
10:54PM 47.6781 -122.2944 248° West 204 235 4,000 -300 Descending Seattle Center
10:54PM 47.6589 -122.3125 212° Southwest 185 213 3,800 -720 Descending Seattle Center
10:55PM 47.6350 -122.3183 189° South 163 188 3,300 -960 Descending Seattle Center